sensor_id;sensor_type;location;lat;lon;timestamp;P1;durP1;ratioP1;P2;durP2;ratioP2
35691;SDS011;26978;44.830;-0.674;2023-04-20T00:01:01;5.50;;;2.40;;
35691;SDS011;26978;44.830;-0.674;2023-04-20T00:03:27;3.03;;;2.30;;
35691;SDS011;26978;44.830;-0.674;2023-04-20T00:05:53;4.90;;;2.47;;
35691;SDS011;26978;44.830;-0.674;2023-04-20T00:08:19;8.35;;;3.08;;
35691;SDS011;26978;44.830;-0.674;2023-04-20T00:10:45;9.30;;;2.80;;
35691;SDS011;26978;44.830;-0.674;2023-04-20T00:13:11;2.90;;;2.30;;
35691;SDS011;26978;44.830;-0.674;2023-04-20T00:15:37;5.32;;;2.92;;
35691;SDS011;26978;44.830;-0.674;2023-04-20T00:18:02;5.63;;;2.60;;
35691;SDS011;26978;44.830;-0.674;2023-04-20T00:20:28;5.28;;;2.88;;
35691;SDS011;26978;44.830;-0.674;2023-04-20T00:22:54;4.60;;;2.45;;
35691;SDS011;26978;44.830;-0.674;2023-04-20T00:25:20;4.30;;;3.25;;
35691;SDS011;26978;44.830;-0.674;2023-04-20T00:27:45;7.45;;;2.88;;
35691;SDS011;26978;44.830;-0.674;2023-04-20T00:30:11;4.75;;;2.83;;
35691;SDS011;26978;44.830;-0.674;2023-04-20T00:32:37;7.43;;;3.03;;
35691;SDS011;26978;44.830;-0.674;2023-04-20T00:35:03;6.20;;;2.92;;
35691;SDS011;26978;44.830;-0.674;2023-04-20T00:37:29;6.80;;;2.60;;
35691;SDS011;26978;44.830;-0.674;2023-04-20T00:39:56;4.15;;;3.03;;
35691;SDS011;26978;44.830;-0.674;2023-04-20T00:42:21;8.32;;;3.47;;
35691;SDS011;26978;44.830;-0.674;2023-04-20T00:44:47;7.13;;;3.22;;
35691;SDS011;26978;44.830;-0.674;2023-04-20T00:47:14;7.60;;;3.33;;
35691;SDS011;26978;44.830;-0.674;2023-04-20T00:49:40;4.55;;;3.22;;
35691;SDS011;26978;44.830;-0.674;2023-04-20T00:52:06;5.57;;;3.30;;
35691;SDS011;26978;44.830;-0.674;2023-04-20T00:54:33;6.43;;;3.42;;
35691;SDS011;26978;44.830;-0.674;2023-04-20T00:57:00;9.55;;;3.17;;
35691;SDS011;26978;44.830;-0.674;2023-04-20T00:59:28;9.02;;;3.38;;
35691;SDS011;26978;44.830;-0.674;2023-04-20T01:01:53;5.93;;;3.17;;
35691;SDS011;26978;44.830;-0.674;2023-04-20T01:04:21;8.02;;;3.85;;
35691;SDS011;26978;44.830;-0.674;2023-04-20T01:06:47;5.22;;;3.17;;
35691;SDS011;26978;44.830;-0.674;2023-04-20T01:09:12;9.43;;;4.15;;
35691;SDS011;26978;44.830;-0.674;2023-04-20T01:11:38;5.85;;;2.97;;
35691;SDS011;26978;44.830;-0.674;2023-04-20T01:14:04;4.35;;;2.97;;
35691;SDS011;26978;44.830;-0.674;2023-04-20T01:16:30;5.63;;;3.15;;
35691;SDS011;26978;44.830;-0.674;2023-04-20T01:18:56;9.63;;;3.78;;
35691;SDS011;26978;44.830;-0.674;2023-04-20T01:21:22;5.78;;;3.22;;
35691;SDS011;26978;44.830;-0.674;2023-04-20T01:23:48;4.55;;;3.35;;
35691;SDS011;26978;44.830;-0.674;2023-04-20T01:26:15;5.10;;;3.08;;
35691;SDS011;26978;44.830;-0.674;2023-04-20T01:28:42;8.48;;;3.55;;
35691;SDS011;26978;44.830;-0.674;2023-04-20T01:31:09;6.30;;;3.60;;
35691;SDS011;26978;44.830;-0.674;2023-04-20T01:33:35;5.38;;;3.30;;
35691;SDS011;26978;44.830;-0.674;2023-04-20T01:36:02;5.78;;;3.20;;
35691;SDS011;26978;44.830;-0.674;2023-04-20T01:38:29;6.90;;;3.65;;
35691;SDS011;26978;44.830;-0.674;2023-04-20T01:40:57;5.90;;;3.17;;
35691;SDS011;26978;44.830;-0.674;2023-04-20T01:43:23;10.45;;;3.38;;
35691;SDS011;26978;44.830;-0.674;2023-04-20T01:45:49;5.10;;;3.30;;
35691;SDS011;26978;44.830;-0.674;2023-04-20T01:48:15;8.98;;;3.38;;
35691;SDS011;26978;44.830;-0.674;2023-04-20T01:50:40;5.22;;;3.80;;
35691;SDS011;26978;44.830;-0.674;2023-04-20T01:53:06;6.28;;;3.80;;
35691;SDS011;26978;44.830;-0.674;2023-04-20T01:55:32;4.97;;;3.78;;
35691;SDS011;26978;44.830;-0.674;2023-04-20T01:57:58;7.20;;;4.22;;
35691;SDS011;26978;44.830;-0.674;2023-04-20T02:00:24;7.25;;;3.70;;
35691;SDS011;26978;44.830;-0.674;2023-04-20T02:02:49;7.60;;;3.60;;
35691;SDS011;26978;44.830;-0.674;2023-04-20T02:05:15;7.70;;;3.65;;
35691;SDS011;26978;44.830;-0.674;2023-04-20T02:07:41;7.43;;;3.50;;
35691;SDS011;26978;44.830;-0.674;2023-04-20T02:10:07;8.63;;;3.40;;
35691;SDS011;26978;44.830;-0.674;2023-04-20T02:12:33;7.43;;;3.90;;
35691;SDS011;26978;44.830;-0.674;2023-04-20T02:14:58;6.35;;;3.97;;
35691;SDS011;26978;44.830;-0.674;2023-04-20T02:17:24;9.55;;;3.85;;
35691;SDS011;26978;44.830;-0.674;2023-04-20T02:19:50;6.80;;;4.18;;
35691;SDS011;26978;44.830;-0.674;2023-04-20T02:22:15;5.95;;;3.97;;
35691;SDS011;26978;44.830;-0.674;2023-04-20T02:24:41;7.63;;;4.38;;
35691;SDS011;26978;44.830;-0.674;2023-04-20T02:27:08;7.03;;;4.00;;
35691;SDS011;26978;44.830;-0.674;2023-04-20T02:29:34;4.53;;;3.30;;
35691;SDS011;26978;44.830;-0.674;2023-04-20T02:32:00;5.50;;;3.47;;
35691;SDS011;26978;44.830;-0.674;2023-04-20T02:34:26;13.23;;;4.47;;
35691;SDS011;26978;44.830;-0.674;2023-04-20T02:36:52;8.40;;;4.50;;
35691;SDS011;26978;44.830;-0.674;2023-04-20T02:39:17;9.07;;;4.35;;
35691;SDS011;26978;44.830;-0.674;2023-04-20T02:41:43;6.47;;;4.50;;
35691;SDS011;26978;44.830;-0.674;2023-04-20T02:44:09;9.57;;;4.72;;
35691;SDS011;26978;44.830;-0.674;2023-04-20T02:46:35;9.90;;;4.40;;
35691;SDS011;26978;44.830;-0.674;2023-04-20T02:49:01;9.18;;;4.20;;
35691;SDS011;26978;44.830;-0.674;2023-04-20T02:51:27;10.30;;;4.82;;
35691;SDS011;26978;44.830;-0.674;2023-04-20T02:53:53;6.35;;;4.15;;
35691;SDS011;26978;44.830;-0.674;2023-04-20T02:56:19;6.85;;;3.88;;
35691;SDS011;26978;44.830;-0.674;2023-04-20T02:58:45;5.25;;;4.32;;
35691;SDS011;26978;44.830;-0.674;2023-04-20T03:01:12;5.45;;;3.90;;
35691;SDS011;26978;44.830;-0.674;2023-04-20T03:03:38;6.95;;;3.97;;
35691;SDS011;26978;44.830;-0.674;2023-04-20T03:06:04;9.18;;;4.63;;
35691;SDS011;26978;44.830;-0.674;2023-04-20T03:08:30;6.97;;;4.55;;
35691;SDS011;26978;44.830;-0.674;2023-04-20T03:10:56;6.47;;;3.97;;
35691;SDS011;26978;44.830;-0.674;2023-04-20T03:13:22;6.10;;;3.90;;
35691;SDS011;26978;44.830;-0.674;2023-04-20T03:15:47;9.05;;;4.30;;
35691;SDS011;26978;44.830;-0.674;2023-04-20T03:18:13;8.45;;;4.18;;
35691;SDS011;26978;44.830;-0.674;2023-04-20T03:20:38;11.52;;;5.10;;
35691;SDS011;26978;44.830;-0.674;2023-04-20T03:23:04;10.90;;;4.53;;
35691;SDS011;26978;44.830;-0.674;2023-04-20T03:25:30;6.07;;;3.80;;
35691;SDS011;26978;44.830;-0.674;2023-04-20T03:27:56;7.72;;;3.92;;
35691;SDS011;26978;44.830;-0.674;2023-04-20T03:30:22;5.80;;;3.90;;
35691;SDS011;26978;44.830;-0.674;2023-04-20T03:32:47;9.10;;;4.85;;
35691;SDS011;26978;44.830;-0.674;2023-04-20T03:35:13;6.13;;;3.88;;
35691;SDS011;26978;44.830;-0.674;2023-04-20T03:37:39;12.15;;;4.53;;
35691;SDS011;26978;44.830;-0.674;2023-04-20T03:40:05;8.93;;;4.30;;
35691;SDS011;26978;44.830;-0.674;2023-04-20T03:42:32;6.55;;;4.53;;
35691;SDS011;26978;44.830;-0.674;2023-04-20T03:44:57;9.65;;;3.78;;
35691;SDS011;26978;44.830;-0.674;2023-04-20T03:47:23;7.70;;;3.78;;
35691;SDS011;26978;44.830;-0.674;2023-04-20T03:49:49;8.63;;;3.88;;
35691;SDS011;26978;44.830;-0.674;2023-04-20T03:52:14;7.88;;;4.22;;
35691;SDS011;26978;44.830;-0.674;2023-04-20T03:54:40;6.80;;;3.92;;
35691;SDS011;26978;44.830;-0.674;2023-04-20T03:57:06;7.97;;;5.40;;
35691;SDS011;26978;44.830;-0.674;2023-04-20T03:59:31;9.85;;;4.43;;
35691;SDS011;26978;44.830;-0.674;2023-04-20T04:01:57;8.98;;;4.32;;
35691;SDS011;26978;44.830;-0.674;2023-04-20T04:04:23;11.73;;;4.78;;
35691;SDS011;26978;44.830;-0.674;2023-04-20T04:06:50;11.60;;;3.90;;
35691;SDS011;26978;44.830;-0.674;2023-04-20T04:09:15;10.57;;;3.90;;
35691;SDS011;26978;44.830;-0.674;2023-04-20T04:11:41;8.55;;;4.40;;
35691;SDS011;26978;44.830;-0.674;2023-04-20T04:14:07;8.23;;;4.28;;
35691;SDS011;26978;44.830;-0.674;2023-04-20T04:16:32;7.97;;;3.92;;
35691;SDS011;26978;44.830;-0.674;2023-04-20T04:18:58;6.20;;;4.78;;
35691;SDS011;26978;44.830;-0.674;2023-04-20T04:21:24;11.10;;;4.43;;
35691;SDS011;26978;44.830;-0.674;2023-04-20T04:23:49;10.70;;;4.35;;
35691;SDS011;26978;44.830;-0.674;2023-04-20T04:26:15;10.07;;;4.25;;
35691;SDS011;26978;44.830;-0.674;2023-04-20T04:28:42;7.38;;;4.10;;
35691;SDS011;26978;44.830;-0.674;2023-04-20T04:31:09;13.45;;;4.63;;
35691;SDS011;26978;44.830;-0.674;2023-04-20T04:33:36;6.97;;;4.25;;
35691;SDS011;26978;44.830;-0.674;2023-04-20T04:36:02;8.50;;;4.10;;
35691;SDS011;26978;44.830;-0.674;2023-04-20T04:38:28;10.32;;;4.72;;
35691;SDS011;26978;44.830;-0.674;2023-04-20T04:40:57;8.05;;;4.40;;
35691;SDS011;26978;44.830;-0.674;2023-04-20T04:43:22;10.80;;;4.80;;
35691;SDS011;26978;44.830;-0.674;2023-04-20T04:45:49;8.88;;;4.63;;
35691;SDS011;26978;44.830;-0.674;2023-04-20T04:48:15;8.80;;;4.32;;
35691;SDS011;26978;44.830;-0.674;2023-04-20T04:50:40;10.32;;;4.50;;
35691;SDS011;26978;44.830;-0.674;2023-04-20T04:53:06;8.95;;;4.82;;
35691;SDS011;26978;44.830;-0.674;2023-04-20T04:55:32;7.95;;;4.68;;
35691;SDS011;26978;44.830;-0.674;2023-04-20T04:57:57;10.45;;;5.35;;
35691;SDS011;26978;44.830;-0.674;2023-04-20T05:00:23;9.85;;;4.85;;
35691;SDS011;26978;44.830;-0.674;2023-04-20T05:02:49;9.63;;;4.70;;
35691;SDS011;26978;44.830;-0.674;2023-04-20T05:05:16;14.55;;;5.25;;
35691;SDS011;26978;44.830;-0.674;2023-04-20T05:07:43;18.38;;;5.00;;
35691;SDS011;26978;44.830;-0.674;2023-04-20T05:10:10;15.15;;;4.78;;
35691;SDS011;26978;44.830;-0.674;2023-04-20T05:12:36;10.05;;;4.72;;
35691;SDS011;26978;44.830;-0.674;2023-04-20T05:15:02;12.38;;;5.28;;
35691;SDS011;26978;44.830;-0.674;2023-04-20T05:17:27;21.70;;;5.85;;
35691;SDS011;26978;44.830;-0.674;2023-04-20T05:19:53;10.27;;;5.03;;
35691;SDS011;26978;44.830;-0.674;2023-04-20T05:22:19;14.45;;;4.78;;
35691;SDS011;26978;44.830;-0.674;2023-04-20T05:24:44;15.27;;;5.05;;
35691;SDS011;26978;44.830;-0.674;2023-04-20T05:27:10;16.00;;;6.50;;
35691;SDS011;26978;44.830;-0.674;2023-04-20T05:29:36;14.10;;;4.88;;
35691;SDS011;26978;44.830;-0.674;2023-04-20T05:32:02;12.57;;;5.55;;
35691;SDS011;26978;44.830;-0.674;2023-04-20T05:34:28;16.45;;;5.68;;
35691;SDS011;26978;44.830;-0.674;2023-04-20T05:36:54;10.60;;;5.03;;
35691;SDS011;26978;44.830;-0.674;2023-04-20T05:39:21;13.77;;;5.15;;
35691;SDS011;26978;44.830;-0.674;2023-04-20T05:41:47;27.55;;;6.20;;
35691;SDS011;26978;44.830;-0.674;2023-04-20T05:44:13;15.50;;;5.40;;
35691;SDS011;26978;44.830;-0.674;2023-04-20T05:46:38;25.20;;;5.97;;
35691;SDS011;26978;44.830;-0.674;2023-04-20T05:49:04;18.60;;;5.85;;
35691;SDS011;26978;44.830;-0.674;2023-04-20T05:51:30;16.30;;;4.97;;
35691;SDS011;26978;44.830;-0.674;2023-04-20T05:53:58;15.38;;;5.22;;
35691;SDS011;26978;44.830;-0.674;2023-04-20T05:56:25;14.73;;;5.85;;
35691;SDS011;26978;44.830;-0.674;2023-04-20T05:58:50;15.23;;;5.20;;
35691;SDS011;26978;44.830;-0.674;2023-04-20T06:01:17;15.68;;;5.75;;
35691;SDS011;26978;44.830;-0.674;2023-04-20T06:03:43;11.85;;;5.60;;
35691;SDS011;26978;44.830;-0.674;2023-04-20T06:06:08;13.73;;;5.88;;
35691;SDS011;26978;44.830;-0.674;2023-04-20T06:08:34;12.80;;;4.40;;
35691;SDS011;26978;44.830;-0.674;2023-04-20T06:11:00;15.45;;;5.43;;
35691;SDS011;26978;44.830;-0.674;2023-04-20T06:13:26;14.77;;;5.68;;
35691;SDS011;26978;44.830;-0.674;2023-04-20T06:15:52;22.33;;;5.95;;
35691;SDS011;26978;44.830;-0.674;2023-04-20T06:18:18;16.85;;;5.22;;
35691;SDS011;26978;44.830;-0.674;2023-04-20T06:20:43;13.90;;;5.70;;
35691;SDS011;26978;44.830;-0.674;2023-04-20T06:23:09;15.98;;;5.30;;
35691;SDS011;26978;44.830;-0.674;2023-04-20T06:25:35;17.77;;;5.15;;
35691;SDS011;26978;44.830;-0.674;2023-04-20T06:28:02;8.77;;;4.53;;
35691;SDS011;26978;44.830;-0.674;2023-04-20T06:30:28;11.40;;;5.10;;
35691;SDS011;26978;44.830;-0.674;2023-04-20T06:32:54;6.15;;;4.30;;
35691;SDS011;26978;44.830;-0.674;2023-04-20T06:35:20;6.38;;;4.68;;
35691;SDS011;26978;44.830;-0.674;2023-04-20T06:37:47;5.63;;;4.10;;
35691;SDS011;26978;44.830;-0.674;2023-04-20T06:40:13;7.78;;;4.15;;
35691;SDS011;26978;44.830;-0.674;2023-04-20T06:42:39;5.35;;;3.95;;
35691;SDS011;26978;44.830;-0.674;2023-04-20T06:45:05;9.52;;;4.13;;
35691;SDS011;26978;44.830;-0.674;2023-04-20T06:47:31;6.50;;;4.13;;
35691;SDS011;26978;44.830;-0.674;2023-04-20T06:49:58;7.28;;;4.75;;
35691;SDS011;26978;44.830;-0.674;2023-04-20T06:52:25;11.55;;;4.35;;
35691;SDS011;26978;44.830;-0.674;2023-04-20T06:54:51;16.80;;;4.63;;
35691;SDS011;26978;44.830;-0.674;2023-04-20T06:57:17;8.13;;;4.38;;
35691;SDS011;26978;44.830;-0.674;2023-04-20T06:59:42;9.95;;;4.35;;
35691;SDS011;26978;44.830;-0.674;2023-04-20T07:02:08;8.38;;;5.00;;
35691;SDS011;26978;44.830;-0.674;2023-04-20T07:04:33;9.65;;;5.18;;
35691;SDS011;26978;44.830;-0.674;2023-04-20T07:06:59;6.65;;;4.80;;
35691;SDS011;26978;44.830;-0.674;2023-04-20T07:09:25;11.38;;;5.72;;
35691;SDS011;26978;44.830;-0.674;2023-04-20T07:11:51;9.55;;;5.47;;
35691;SDS011;26978;44.830;-0.674;2023-04-20T07:14:17;9.88;;;5.20;;
35691;SDS011;26978;44.830;-0.674;2023-04-20T07:16:42;13.25;;;5.88;;
35691;SDS011;26978;44.830;-0.674;2023-04-20T07:19:08;9.18;;;5.55;;
35691;SDS011;26978;44.830;-0.674;2023-04-20T07:21:34;13.38;;;5.82;;
35691;SDS011;26978;44.830;-0.674;2023-04-20T07:24:00;10.77;;;6.13;;
35691;SDS011;26978;44.830;-0.674;2023-04-20T07:26:26;11.85;;;5.95;;
35691;SDS011;26978;44.830;-0.674;2023-04-20T07:28:51;8.18;;;5.82;;
35691;SDS011;26978;44.830;-0.674;2023-04-20T07:31:17;10.57;;;6.35;;
35691;SDS011;26978;44.830;-0.674;2023-04-20T07:33:43;13.50;;;6.40;;
35691;SDS011;26978;44.830;-0.674;2023-04-20T07:36:09;19.58;;;6.75;;
35691;SDS011;26978;44.830;-0.674;2023-04-20T07:38:35;9.10;;;6.47;;
35691;SDS011;26978;44.830;-0.674;2023-04-20T07:41:00;12.52;;;6.35;;
35691;SDS011;26978;44.830;-0.674;2023-04-20T07:43:27;8.60;;;5.55;;
35691;SDS011;26978;44.830;-0.674;2023-04-20T07:45:52;9.98;;;5.80;;
35691;SDS011;26978;44.830;-0.674;2023-04-20T07:48:18;15.65;;;6.47;;
35691;SDS011;26978;44.830;-0.674;2023-04-20T07:50:44;8.40;;;6.00;;
35691;SDS011;26978;44.830;-0.674;2023-04-20T07:53:10;10.32;;;6.63;;
35691;SDS011;26978;44.830;-0.674;2023-04-20T07:55:36;8.32;;;5.72;;
35691;SDS011;26978;44.830;-0.674;2023-04-20T07:58:02;9.02;;;5.32;;
35691;SDS011;26978;44.830;-0.674;2023-04-20T08:00:28;10.02;;;4.93;;
35691;SDS011;26978;44.830;-0.674;2023-04-20T08:02:54;8.65;;;5.30;;
35691;SDS011;26978;44.830;-0.674;2023-04-20T08:05:19;8.95;;;5.10;;
35691;SDS011;26978;44.830;-0.674;2023-04-20T08:07:46;7.30;;;4.32;;
35691;SDS011;26978;44.830;-0.674;2023-04-20T08:10:11;7.78;;;4.72;;
35691;SDS011;26978;44.830;-0.674;2023-04-20T08:12:37;8.43;;;5.15;;
35691;SDS011;26978;44.830;-0.674;2023-04-20T08:15:04;10.65;;;4.78;;
35691;SDS011;26978;44.830;-0.674;2023-04-20T08:17:31;9.15;;;5.32;;
35691;SDS011;26978;44.830;-0.674;2023-04-20T08:19:57;17.70;;;6.00;;
35691;SDS011;26978;44.830;-0.674;2023-04-20T08:22:22;11.95;;;4.68;;
35691;SDS011;26978;44.830;-0.674;2023-04-20T08:24:51;8.88;;;5.15;;
35691;SDS011;26978;44.830;-0.674;2023-04-20T08:27:17;12.30;;;5.18;;
35691;SDS011;26978;44.830;-0.674;2023-04-20T08:29:42;8.95;;;4.78;;
35691;SDS011;26978;44.830;-0.674;2023-04-20T08:32:08;13.25;;;4.70;;
35691;SDS011;26978;44.830;-0.674;2023-04-20T08:34:36;8.77;;;4.70;;
35691;SDS011;26978;44.830;-0.674;2023-04-20T08:37:02;6.63;;;4.78;;
35691;SDS011;26978;44.830;-0.674;2023-04-20T08:39:28;8.55;;;4.30;;
35691;SDS011;26978;44.830;-0.674;2023-04-20T08:41:54;7.20;;;4.55;;
35691;SDS011;26978;44.830;-0.674;2023-04-20T08:44:21;4.95;;;3.85;;
35691;SDS011;26978;44.830;-0.674;2023-04-20T08:46:48;15.15;;;5.75;;
35691;SDS011;26978;44.830;-0.674;2023-04-20T08:49:14;15.10;;;5.50;;
35691;SDS011;26978;44.830;-0.674;2023-04-20T08:51:45;10.10;;;4.60;;
35691;SDS011;26978;44.830;-0.674;2023-04-20T08:54:11;10.02;;;5.18;;
35691;SDS011;26978;44.830;-0.674;2023-04-20T08:56:39;7.78;;;4.93;;
35691;SDS011;26978;44.830;-0.674;2023-04-20T08:59:09;7.63;;;4.88;;
35691;SDS011;26978;44.830;-0.674;2023-04-20T09:01:37;12.55;;;5.45;;
35691;SDS011;26978;44.830;-0.674;2023-04-20T09:04:14;5.63;;;4.28;;
35691;SDS011;26978;44.830;-0.674;2023-04-20T09:06:44;13.60;;;4.97;;
35691;SDS011;26978;44.830;-0.674;2023-04-20T09:09:11;10.60;;;3.80;;
35691;SDS011;26978;44.830;-0.674;2023-04-20T09:11:37;9.25;;;4.88;;
35691;SDS011;26978;44.830;-0.674;2023-04-20T09:14:04;9.00;;;4.20;;
35691;SDS011;26978;44.830;-0.674;2023-04-20T09:16:35;6.13;;;4.43;;
35691;SDS011;26978;44.830;-0.674;2023-04-20T09:19:04;12.38;;;4.50;;
35691;SDS011;26978;44.830;-0.674;2023-04-20T09:21:30;8.25;;;4.30;;
35691;SDS011;26978;44.830;-0.674;2023-04-20T09:26:26;9.07;;;4.07;;
35691;SDS011;26978;44.830;-0.674;2023-04-20T09:28:55;8.68;;;4.25;;
35691;SDS011;26978;44.830;-0.674;2023-04-20T09:31:21;6.90;;;4.45;;
35691;SDS011;26978;44.830;-0.674;2023-04-20T09:34:00;8.93;;;3.63;;
35691;SDS011;26978;44.830;-0.674;2023-04-20T09:37:00;5.60;;;3.83;;
35691;SDS011;26978;44.830;-0.674;2023-04-20T09:39:20;5.93;;;3.58;;
35691;SDS011;26978;44.830;-0.674;2023-04-20T09:41:48;10.82;;;4.13;;
35691;SDS011;26978;44.830;-0.674;2023-04-20T09:44:15;4.03;;;3.15;;
35691;SDS011;26978;44.830;-0.674;2023-04-20T09:46:42;4.45;;;3.25;;
35691;SDS011;26978;44.830;-0.674;2023-04-20T09:49:10;5.20;;;3.20;;
35691;SDS011;26978;44.830;-0.674;2023-04-20T09:51:38;7.15;;;3.60;;
35691;SDS011;26978;44.830;-0.674;2023-04-20T09:54:11;5.07;;;3.30;;
35691;SDS011;26978;44.830;-0.674;2023-04-20T09:56:38;12.75;;;3.40;;
35691;SDS011;26978;44.830;-0.674;2023-04-20T09:59:04;9.95;;;3.30;;
35691;SDS011;26978;44.830;-0.674;2023-04-20T10:01:31;5.15;;;3.20;;
35691;SDS011;26978;44.830;-0.674;2023-04-20T10:04:00;4.50;;;3.42;;
35691;SDS011;26978;44.830;-0.674;2023-04-20T10:06:28;4.45;;;3.40;;
35691;SDS011;26978;44.830;-0.674;2023-04-20T10:09:00;5.55;;;3.22;;
35691;SDS011;26978;44.830;-0.674;2023-04-20T10:13:53;5.90;;;3.45;;
35691;SDS011;26978;44.830;-0.674;2023-04-20T10:16:20;4.82;;;3.45;;
35691;SDS011;26978;44.830;-0.674;2023-04-20T10:18:55;9.90;;;3.65;;
35691;SDS011;26978;44.830;-0.674;2023-04-20T10:21:22;5.07;;;3.38;;
35691;SDS011;26978;44.830;-0.674;2023-04-20T10:23:48;9.15;;;3.22;;
35691;SDS011;26978;44.830;-0.674;2023-04-20T10:26:14;3.47;;;3.10;;
35691;SDS011;26978;44.830;-0.674;2023-04-20T10:28:40;4.38;;;3.25;;
35691;SDS011;26978;44.830;-0.674;2023-04-20T10:31:09;4.32;;;3.38;;
35691;SDS011;26978;44.830;-0.674;2023-04-20T10:33:52;8.80;;;3.88;;
35691;SDS011;26978;44.830;-0.674;2023-04-20T10:36:30;4.28;;;3.28;;
35691;SDS011;26978;44.830;-0.674;2023-04-20T10:39:23;5.65;;;3.00;;
35691;SDS011;26978;44.830;-0.674;2023-04-20T10:45:09;4.60;;;3.55;;
35691;SDS011;26978;44.830;-0.674;2023-04-20T10:47:35;5.63;;;3.20;;
35691;SDS011;26978;44.830;-0.674;2023-04-20T10:50:09;3.70;;;3.38;;
35691;SDS011;26978;44.830;-0.674;2023-04-20T10:52:42;3.95;;;3.20;;
35691;SDS011;26978;44.830;-0.674;2023-04-20T10:55:27;5.57;;;3.20;;
35691;SDS011;26978;44.830;-0.674;2023-04-20T10:57:52;5.45;;;3.80;;
35691;SDS011;26978;44.830;-0.674;2023-04-20T11:00:18;5.47;;;3.55;;
35691;SDS011;26978;44.830;-0.674;2023-04-20T11:02:50;4.15;;;3.30;;
35691;SDS011;26978;44.830;-0.674;2023-04-20T11:05:17;3.53;;;3.15;;
35691;SDS011;26978;44.830;-0.674;2023-04-20T11:07:53;3.30;;;2.83;;
35691;SDS011;26978;44.830;-0.674;2023-04-20T11:10:21;7.38;;;3.80;;
35691;SDS011;26978;44.830;-0.674;2023-04-20T11:12:49;3.85;;;3.13;;
35691;SDS011;26978;44.830;-0.674;2023-04-20T11:15:16;3.25;;;2.83;;
35691;SDS011;26978;44.830;-0.674;2023-04-20T11:17:42;4.43;;;3.03;;
35691;SDS011;26978;44.830;-0.674;2023-04-20T11:20:08;3.72;;;2.90;;
35691;SDS011;26978;44.830;-0.674;2023-04-20T11:22:36;2.90;;;2.60;;
35691;SDS011;26978;44.830;-0.674;2023-04-20T11:25:06;3.40;;;2.67;;
35691;SDS011;26978;44.830;-0.674;2023-04-20T11:27:33;3.80;;;2.85;;
35691;SDS011;26978;44.830;-0.674;2023-04-20T11:29:59;3.17;;;2.88;;
35691;SDS011;26978;44.830;-0.674;2023-04-20T11:32:30;4.75;;;3.22;;
35691;SDS011;26978;44.830;-0.674;2023-04-20T11:34:58;3.50;;;2.80;;
35691;SDS011;26978;44.830;-0.674;2023-04-20T11:37:49;2.90;;;2.60;;
35691;SDS011;26978;44.830;-0.674;2023-04-20T11:40:15;3.75;;;2.60;;
35691;SDS011;26978;44.830;-0.674;2023-04-20T11:42:41;4.88;;;3.20;;
35691;SDS011;26978;44.830;-0.674;2023-04-20T11:45:07;3.70;;;3.22;;
35691;SDS011;26978;44.830;-0.674;2023-04-20T11:47:35;3.55;;;2.47;;
35691;SDS011;26978;44.830;-0.674;2023-04-20T11:50:00;5.22;;;2.50;;
35691;SDS011;26978;44.830;-0.674;2023-04-20T11:52:26;3.00;;;2.58;;
35691;SDS011;26978;44.830;-0.674;2023-04-20T11:54:51;3.80;;;2.22;;
35691;SDS011;26978;44.830;-0.674;2023-04-20T11:57:18;8.63;;;2.85;;
35691;SDS011;26978;44.830;-0.674;2023-04-20T11:59:45;4.93;;;2.75;;
35691;SDS011;26978;44.830;-0.674;2023-04-20T12:02:13;3.05;;;2.70;;
35691;SDS011;26978;44.830;-0.674;2023-04-20T12:04:39;5.47;;;2.83;;
35691;SDS011;26978;44.830;-0.674;2023-04-20T12:07:05;4.45;;;2.88;;
35691;SDS011;26978;44.830;-0.674;2023-04-20T12:09:31;3.47;;;2.45;;
35691;SDS011;26978;44.830;-0.674;2023-04-20T12:12:01;5.45;;;2.35;;
35691;SDS011;26978;44.830;-0.674;2023-04-20T12:14:27;6.70;;;2.78;;
35691;SDS011;26978;44.830;-0.674;2023-04-20T12:16:53;5.50;;;2.70;;
35691;SDS011;26978;44.830;-0.674;2023-04-20T12:19:19;3.85;;;2.70;;
35691;SDS011;26978;44.830;-0.674;2023-04-20T12:21:44;7.50;;;2.70;;
35691;SDS011;26978;44.830;-0.674;2023-04-20T12:24:12;6.57;;;2.90;;
35691;SDS011;26978;44.830;-0.674;2023-04-20T12:26:37;6.80;;;2.70;;
35691;SDS011;26978;44.830;-0.674;2023-04-20T12:29:03;3.88;;;2.38;;
35691;SDS011;26978;44.830;-0.674;2023-04-20T12:31:29;5.78;;;2.50;;
35691;SDS011;26978;44.830;-0.674;2023-04-20T12:33:55;2.22;;;2.03;;
35691;SDS011;26978;44.830;-0.674;2023-04-20T12:36:20;8.20;;;2.60;;
35691;SDS011;26978;44.830;-0.674;2023-04-20T12:38:46;5.15;;;2.75;;
35691;SDS011;26978;44.830;-0.674;2023-04-20T12:41:12;4.43;;;2.40;;
35691;SDS011;26978;44.830;-0.674;2023-04-20T12:43:39;2.00;;;1.90;;
35691;SDS011;26978;44.830;-0.674;2023-04-20T12:46:04;2.80;;;2.40;;
35691;SDS011;26978;44.830;-0.674;2023-04-20T12:48:30;3.90;;;1.85;;
35691;SDS011;26978;44.830;-0.674;2023-04-20T12:50:56;2.33;;;2.13;;
35691;SDS011;26978;44.830;-0.674;2023-04-20T12:53:21;2.72;;;1.67;;
35691;SDS011;26978;44.830;-0.674;2023-04-20T12:55:47;1.70;;;1.60;;
35691;SDS011;26978;44.830;-0.674;2023-04-20T12:58:13;5.05;;;1.90;;
35691;SDS011;26978;44.830;-0.674;2023-04-20T13:00:40;2.38;;;2.03;;
35691;SDS011;26978;44.830;-0.674;2023-04-20T13:03:07;3.47;;;1.95;;
35691;SDS011;26978;44.830;-0.674;2023-04-20T13:05:33;4.20;;;2.03;;
35691;SDS011;26978;44.830;-0.674;2023-04-20T13:07:59;3.88;;;1.95;;
35691;SDS011;26978;44.830;-0.674;2023-04-20T13:10:24;2.10;;;1.88;;
35691;SDS011;26978;44.830;-0.674;2023-04-20T13:12:50;2.25;;;1.55;;
35691;SDS011;26978;44.830;-0.674;2023-04-20T13:15:16;1.42;;;1.33;;
35691;SDS011;26978;44.830;-0.674;2023-04-20T13:17:44;2.20;;;1.85;;
35691;SDS011;26978;44.830;-0.674;2023-04-20T13:20:10;2.58;;;2.00;;
35691;SDS011;26978;44.830;-0.674;2023-04-20T13:22:37;2.25;;;1.80;;
35691;SDS011;26978;44.830;-0.674;2023-04-20T13:25:06;2.30;;;2.10;;
35691;SDS011;26978;44.830;-0.674;2023-04-20T13:27:32;2.88;;;1.50;;
35691;SDS011;26978;44.830;-0.674;2023-04-20T13:29:57;2.08;;;1.42;;
35691;SDS011;26978;44.830;-0.674;2023-04-20T13:32:24;6.03;;;1.70;;
35691;SDS011;26978;44.830;-0.674;2023-04-20T13:34:50;5.80;;;1.98;;
35691;SDS011;26978;44.830;-0.674;2023-04-20T13:37:16;4.97;;;1.77;;
35691;SDS011;26978;44.830;-0.674;2023-04-20T13:39:42;4.28;;;1.90;;
35691;SDS011;26978;44.830;-0.674;2023-04-20T13:42:07;1.92;;;1.55;;
35691;SDS011;26978;44.830;-0.674;2023-04-20T13:44:33;1.70;;;1.60;;
35691;SDS011;26978;44.830;-0.674;2023-04-20T13:46:59;2.90;;;1.40;;
35691;SDS011;26978;44.830;-0.674;2023-04-20T13:49:25;4.03;;;1.75;;
35691;SDS011;26978;44.830;-0.674;2023-04-20T13:51:51;4.65;;;1.67;;
35691;SDS011;26978;44.830;-0.674;2023-04-20T13:54:16;1.75;;;1.30;;
35691;SDS011;26978;44.830;-0.674;2023-04-20T13:56:42;2.20;;;1.50;;
35691;SDS011;26978;44.830;-0.674;2023-04-20T13:59:08;1.92;;;1.55;;
35691;SDS011;26978;44.830;-0.674;2023-04-20T14:01:33;1.48;;;1.38;;
35691;SDS011;26978;44.830;-0.674;2023-04-20T14:03:59;1.80;;;1.55;;
35691;SDS011;26978;44.830;-0.674;2023-04-20T14:06:25;1.45;;;1.30;;
35691;SDS011;26978;44.830;-0.674;2023-04-20T14:08:52;3.20;;;1.60;;
35691;SDS011;26978;44.830;-0.674;2023-04-20T14:11:18;2.22;;;1.42;;
35691;SDS011;26978;44.830;-0.674;2023-04-20T14:13:44;3.33;;;1.40;;
35691;SDS011;26978;44.830;-0.674;2023-04-20T14:16:10;3.03;;;1.40;;
35691;SDS011;26978;44.830;-0.674;2023-04-20T14:18:38;1.70;;;1.40;;
35691;SDS011;26978;44.830;-0.674;2023-04-20T14:21:04;3.33;;;1.27;;
35691;SDS011;26978;44.830;-0.674;2023-04-20T14:23:30;3.22;;;1.30;;
35691;SDS011;26978;44.830;-0.674;2023-04-20T14:25:56;2.25;;;1.40;;
35691;SDS011;26978;44.830;-0.674;2023-04-20T14:28:21;2.33;;;1.88;;
35691;SDS011;26978;44.830;-0.674;2023-04-20T14:30:47;1.30;;;1.20;;
35691;SDS011;26978;44.830;-0.674;2023-04-20T14:33:15;6.43;;;1.65;;
35691;SDS011;26978;44.830;-0.674;2023-04-20T14:35:41;3.90;;;1.33;;